Time;durP1;ratioP1;P1;durP2;ratioP2;P2;SDS_P1;SDS_P2;PMS_P1;PMS_P2;Temp;Humidity;BMP_temperature;BMP_pressure;BME280_temperature;BME280_humidity;BME280_pressure;Samples;Min_cycle;Max_cycle;Signal;HPM_P1;HPM_P2
2021/07/15 00:01:20;;;;;;;0.50;0.50;;;;;;;16.93;100.00;95878.84;5053834;28;20258;-62
2021/07/15 00:03:46;;;;;;;0.50;0.50;;;;;;;17.16;100.00;95881.56;5051972;28;20700;-62
2021/07/15 00:06:12;;;;;;;4.00;0.40;;;;;;;17.08;100.00;95876.06;5053378;28;20414;-62
2021/07/15 00:08:37;;;;;;;0.40;0.40;;;;;;;17.20;100.00;95874.63;5053480;28;20202;-61
2021/07/15 00:11:12;;;;;;;0.73;0.60;;;;;;;17.13;100.00;95868.88;5053290;28;20665;-62
2021/07/15 00:13:38;;;;;;;0.47;0.47;;;;;;;17.21;100.00;95867.47;5052405;28;20194;-63
2021/07/15 00:16:08;;;;;;;0.50;0.50;;;;;;;17.28;100.00;95865.28;5053339;28;20934;-63
2021/07/15 00:18:37;;;;;;;0.40;0.40;;;;;;;17.36;100.00;95862.81;5037763;28;20426;-62
2021/07/15 00:21:05;;;;;;;0.50;0.40;;;;;;;17.26;100.00;95868.22;5033011;28;20472;-63
2021/07/15 00:23:32;;;;;;;0.43;0.43;;;;;;;17.25;100.00;95856.00;5031479;28;20509;-61
2021/07/15 00:25:58;;;;;;;0.50;0.40;;;;;;;17.28;100.00;95862.63;5033386;28;20506;-63
2021/07/15 00:28:24;;;;;;;0.50;0.50;;;;;;;17.20;100.00;95858.72;5033299;28;20172;-61
2021/07/15 00:30:49;;;;;;;1.80;0.37;;;;;;;17.17;100.00;95864.59;5033440;28;20176;-61
2021/07/15 00:33:15;;;;;;;1.13;0.50;;;;;;;17.16;100.00;95860.31;5033136;28;20238;-62
2021/07/15 00:35:40;;;;;;;1.50;0.50;;;;;;;16.83;100.00;95865.66;5033227;28;20172;-62
2021/07/15 00:38:07;;;;;;;0.50;0.50;;;;;;;16.99;100.00;95859.97;5033040;28;20630;-61
2021/07/15 00:40:33;;;;;;;0.40;0.40;;;;;;;16.80;100.00;95860.88;5033001;28;20253;-61
2021/07/15 00:42:59;;;;;;;0.53;0.53;;;;;;;16.88;100.00;95857.66;5032553;28;20963;-62
2021/07/15 00:45:24;;;;;;;0.30;0.30;;;;;;;16.88;100.00;95866.41;5032879;28;20522;-62
2021/07/15 00:47:50;;;;;;;1.17;0.40;;;;;;;17.06;100.00;95857.78;5046052;28;20551;-62
2021/07/15 00:50:18;;;;;;;0.40;0.40;;;;;;;17.14;100.00;95851.84;5052833;28;20175;-62
2021/07/15 00:52:45;;;;;;;0.50;0.30;;;;;;;17.16;100.00;95855.03;5052501;28;20164;-62
2021/07/15 00:55:39;;;;;;;0.40;0.30;;;;;;;16.90;100.00;95844.91;5052673;28;20430;-63
2021/07/15 00:58:06;;;;;;;0.37;0.30;;;;;;;16.91;100.00;95836.66;5052891;28;20421;-62
2021/07/15 01:00:32;;;;;;;2.30;0.40;;;;;;;16.76;100.00;95842.06;5052747;28;20414;-62
2021/07/15 01:02:58;;;;;;;0.40;0.40;;;;;;;17.02;100.00;95851.44;5051665;28;20453;-62
2021/07/15 01:05:26;;;;;;;1.30;0.30;;;;;;;16.81;100.00;95849.22;5052289;28;20499;-63
2021/07/15 01:07:52;;;;;;;0.60;0.40;;;;;;;16.97;100.00;95842.72;5052808;28;20172;-62
2021/07/15 01:10:20;;;;;;;0.50;0.50;;;;;;;16.96;100.00;95847.22;5050969;28;20434;-62
2021/07/15 01:13:00;;;;;;;0.80;0.50;;;;;;;16.84;100.00;95851.31;5048748;28;20689;-63
2021/07/15 01:15:34;;;;;;;0.40;0.40;;;;;;;16.82;100.00;95851.59;5032761;28;20433;-61
2021/07/15 01:18:23;;;;;;;0.53;0.40;;;;;;;16.85;100.00;95848.38;5032827;28;20415;-63
2021/07/15 01:20:57;;;;;;;0.50;0.43;;;;;;;17.15;100.00;95844.69;5032006;28;20434;-63
2021/07/15 01:23:40;;;;;;;0.30;0.30;;;;;;;16.74;100.00;95843.44;5032387;28;20454;-63
2021/07/15 01:26:24;;;;;;;0.60;0.50;;;;;;;16.70;100.00;95842.41;5035365;28;20409;-62
2021/07/15 01:29:18;;;;;;;0.30;0.30;;;;;;;16.74;100.00;95841.56;5050074;28;20418;-63
2021/07/15 01:31:49;;;;;;;0.40;0.40;;;;;;;16.78;100.00;95844.44;5044528;28;20415;-62
2021/07/15 01:34:14;;;;;;;0.87;0.30;;;;;;;16.49;100.00;95839.06;5056317;28;20491;-63
2021/07/15 01:36:45;;;;;;;1.07;0.40;;;;;;;16.57;100.00;95821.78;5056438;28;20406;-63
2021/07/15 01:39:13;;;;;;;0.50;0.40;;;;;;;16.46;100.00;95811.22;5056235;28;20179;-63
2021/07/15 01:41:46;;;;;;;0.40;0.40;;;;;;;16.27;100.00;95812.13;5055750;28;20409;-61
2021/07/15 01:44:17;;;;;;;1.23;0.30;;;;;;;16.36;100.00;95821.88;5047152;28;20843;-62
2021/07/15 01:46:43;;;;;;;1.17;0.33;;;;;;;16.02;100.00;95831.63;5036312;28;20494;-63
2021/07/15 01:49:09;;;;;;;0.50;0.40;;;;;;;16.23;100.00;95821.72;5036110;28;20413;-63
2021/07/15 01:51:36;;;;;;;0.40;0.40;;;;;;;16.09;100.00;95824.16;5035612;28;20407;-64
2021/07/15 01:54:03;;;;;;;1.20;0.40;;;;;;;16.32;100.00;95814.78;5035966;28;20427;-62
2021/07/15 01:56:30;;;;;;;0.40;0.40;;;;;;;16.18;100.00;95821.72;5035951;28;20905;-62
2021/07/15 01:58:58;;;;;;;1.07;0.50;;;;;;;16.13;100.00;95830.50;5048647;28;20479;-63
2021/07/15 02:01:24;;;;;;;0.47;0.40;;;;;;;16.15;100.00;95836.34;5044359;28;20527;-66
2021/07/15 02:03:54;;;;;;;0.50;0.40;;;;;;;15.94;100.00;95831.41;5035631;28;20459;-63
2021/07/15 02:06:21;;;;;;;2.27;0.40;;;;;;;16.05;100.00;95828.41;5035770;28;20405;-63
2021/07/15 02:08:48;;;;;;;0.90;0.40;;;;;;;16.05;100.00;95830.31;5034344;28;20418;-62
2021/07/15 02:11:15;;;;;;;0.50;0.40;;;;;;;15.96;100.00;95816.81;5051247;28;20422;-62
2021/07/15 02:13:42;;;;;;;2.83;0.50;;;;;;;15.97;100.00;95828.22;5055117;28;20430;-63
2021/07/15 02:16:08;;;;;;;0.40;0.40;;;;;;;15.97;100.00;95818.41;5052722;28;20422;-62
2021/07/15 02:18:34;;;;;;;2.00;0.47;;;;;;;16.11;100.00;95816.75;5045282;28;20419;-62
2021/07/15 02:21:00;;;;;;;0.40;0.40;;;;;;;16.26;100.00;95805.25;5035349;28;20319;-62
2021/07/15 02:23:27;;;;;;;0.57;0.30;;;;;;;16.23;100.00;95811.13;5035121;28;20488;-64
2021/07/15 02:25:55;;;;;;;0.40;0.40;;;;;;;16.28;100.00;95814.53;5035469;28;20909;-63
2021/07/15 02:28:22;;;;;;;0.40;0.37;;;;;;;16.26;100.00;95818.50;5035333;28;20442;-61
2021/07/15 02:30:51;;;;;;;0.50;0.40;;;;;;;16.37;100.00;95820.84;5035262;28;20964;-62
2021/07/15 02:33:22;;;;;;;0.40;0.40;;;;;;;16.44;100.00;95833.78;5034898;28;20414;-62
2021/07/15 02:35:50;;;;;;;1.03;0.30;;;;;;;16.54;100.00;95832.97;5035288;28;20494;-62
2021/07/15 02:38:20;;;;;;;0.70;0.30;;;;;;;16.70;100.00;95829.13;5035343;28;20752;-61
2021/07/15 02:40:47;;;;;;;0.30;0.30;;;;;;;16.54;100.00;95830.31;5036478;28;20407;-62
2021/07/15 02:43:12;;;;;;;0.90;0.40;;;;;;;16.89;100.00;95830.03;5054943;28;20453;-62
2021/07/15 02:45:38;;;;;;;0.40;0.40;;;;;;;16.95;100.00;95831.56;5054921;28;20418;-62
2021/07/15 02:48:03;;;;;;;1.27;0.40;;;;;;;17.00;100.00;95834.97;5053634;28;20218;-63
2021/07/15 02:50:29;;;;;;;0.30;0.20;;;;;;;16.89;100.00;95830.81;5035652;28;20643;-62
2021/07/15 02:52:58;;;;;;;0.93;0.30;;;;;;;17.05;100.00;95829.63;5033863;28;20527;-61
2021/07/15 02:55:26;;;;;;;0.97;0.30;;;;;;;17.30;100.00;95836.59;5034754;28;20211;-61
2021/07/15 02:58:04;;;;;;;0.60;0.40;;;;;;;17.18;99.06;95833.50;5038085;28;20410;-62
2021/07/15 03:00:40;;;;;;;0.30;0.30;;;;;;;17.02;99.59;95840.81;5053495;28;20414;-63
2021/07/15 03:03:33;;;;;;;1.00;0.30;;;;;;;17.01;100.00;95835.78;5053452;28;20457;-62
2021/07/15 03:06:01;;;;;;;1.43;0.30;;;;;;;16.76;100.00;95836.75;5053209;28;20771;-62
2021/07/15 03:08:32;;;;;;;1.47;0.30;;;;;;;16.62;100.00;95835.00;5054448;28;20409;-62
2021/07/15 03:11:01;;;;;;;1.20;0.33;;;;;;;16.74;100.00;95836.25;5054605;28;20421;-63
2021/07/15 03:13:27;;;;;;;0.30;0.30;;;;;;;16.74;100.00;95846.09;5054107;28;20456;-63
2021/07/15 03:15:53;;;;;;;0.30;0.27;;;;;;;16.77;100.00;95842.88;5054486;28;20414;-62
2021/07/15 03:18:20;;;;;;;1.90;0.30;;;;;;;16.76;100.00;95834.09;5048947;28;20179;-62
2021/07/15 03:20:47;;;;;;;0.47;0.30;;;;;;;16.46;100.00;95831.66;5034099;28;20179;-63
2021/07/15 03:23:16;;;;;;;0.97;0.30;;;;;;;16.46;100.00;95827.16;5032479;28;20525;-63
2021/07/15 03:25:46;;;;;;;0.60;0.30;;;;;;;16.56;100.00;95825.53;5034207;28;20885;-63
2021/07/15 03:28:14;;;;;;;0.30;0.30;;;;;;;16.24;100.00;95828.59;5034483;28;20400;-62
2021/07/15 03:30:40;;;;;;;0.50;0.40;;;;;;;16.50;100.00;95839.88;5034147;28;20407;-63
2021/07/15 03:33:06;;;;;;;0.60;0.60;;;;;;;16.44;100.00;95849.69;5043132;28;20479;-62
2021/07/15 03:35:31;;;;;;;0.50;0.30;;;;;;;16.71;100.00;95851.94;5050193;28;20184;-63
2021/07/15 03:37:58;;;;;;;0.73;0.40;;;;;;;16.92;100.00;95835.56;5034054;28;20402;-63
2021/07/15 03:40:27;;;;;;;0.30;0.30;;;;;;;16.98;100.00;95837.13;5034088;28;20694;-62
2021/07/15 03:42:54;;;;;;;0.67;0.30;;;;;;;17.15;100.00;95842.03;5032295;28;20455;-63
2021/07/15 03:45:22;;;;;;;0.30;0.30;;;;;;;17.24;100.00;95845.66;5033868;28;20552;-63
2021/07/15 03:47:49;;;;;;;0.40;0.30;;;;;;;17.19;99.03;95848.38;5033503;28;20403;-63
2021/07/15 03:50:19;;;;;;;0.50;0.40;;;;;;;17.35;98.77;95841.84;5034172;28;20433;-63
2021/07/15 03:52:48;;;;;;;0.70;0.30;;;;;;;17.47;99.06;95847.59;5033659;28;20402;-63
2021/07/15 03:55:16;;;;;;;1.03;0.30;;;;;;;17.54;98.31;95841.97;5033720;28;20422;-62
2021/07/15 03:57:44;;;;;;;0.30;0.30;;;;;;;17.65;98.03;95849.53;5044904;28;20420;-62
2021/07/15 04:00:11;;;;;;;0.97;0.30;;;;;;;17.81;97.33;95856.25;5053307;28;20421;-63
2021/07/15 04:02:39;;;;;;;0.50;0.30;;;;;;;17.74;95.60;95855.00;5053126;28;20806;-63
2021/07/15 04:05:06;;;;;;;0.40;0.40;;;;;;;17.68;95.28;95848.97;5052523;28;20430;-62
2021/07/15 04:07:33;;;;;;;1.10;0.43;;;;;;;17.66;95.90;95861.75;5046868;28;20754;-63
2021/07/15 04:09:59;;;;;;;0.70;0.50;;;;;;;17.80;95.92;95856.53;5033621;28;20409;-63
2021/07/15 04:12:26;;;;;;;0.80;0.30;;;;;;;17.95;95.13;95864.34;5032958;28;20407;-63
2021/07/15 04:15:00;;;;;;;0.60;0.30;;;;;;;17.85;96.38;95857.28;5033496;28;20434;-62
2021/07/15 04:17:55;;;;;;;1.43;0.40;;;;;;;17.96;96.11;95850.75;5033330;28;20524;-64
2021/07/15 04:20:25;;;;;;;0.30;0.30;;;;;;;17.96;95.32;95860.59;5033616;28;20422;-62
2021/07/15 04:22:54;;;;;;;0.87;0.30;;;;;;;18.07;94.83;95873.50;5049714;28;20967;-62
2021/07/15 04:25:22;;;;;;;0.40;0.20;;;;;;;17.96;93.64;95866.72;5053364;28;20429;-63
2021/07/15 04:27:50;;;;;;;0.40;0.40;;;;;;;18.05;93.50;95851.72;5053437;28;20754;-63
2021/07/15 04:30:16;;;;;;;1.40;0.30;;;;;;;17.98;93.74;95853.13;5053173;28;20432;-63
2021/07/15 04:32:51;;;;;;;0.67;0.40;;;;;;;17.80;94.84;95860.00;5053170;28;20881;-62
2021/07/15 04:35:19;;;;;;;0.70;0.50;;;;;;;17.88;94.71;95858.59;5053241;28;20426;-62
2021/07/15 04:37:46;;;;;;;1.17;0.43;;;;;;;17.78;95.12;95861.34;5034328;28;20426;-61
2021/07/15 04:40:16;;;;;;;4.10;0.43;;;;;;;17.86;95.34;95869.50;5033090;28;20830;-62
2021/07/15 04:42:43;;;;;;;0.80;0.40;;;;;;;17.90;94.76;95869.72;5032825;28;20455;-62
2021/07/15 04:45:14;;;;;;;1.13;0.40;;;;;;;18.03;93.91;95867.16;5033153;28;20426;-63
2021/07/15 04:47:45;;;;;;;0.90;0.30;;;;;;;18.02;94.00;95862.94;5033121;28;20407;-62
2021/07/15 04:50:14;;;;;;;0.50;0.30;;;;;;;17.84;94.51;95855.69;5032087;28;20462;-62
2021/07/15 04:52:41;;;;;;;2.97;0.30;;;;;;;17.65;96.07;95854.84;5052222;28;20421;-62
2021/07/15 04:55:08;;;;;;;0.40;0.33;;;;;;;17.72;95.82;95844.66;5052871;28;20774;-61
2021/07/15 04:57:35;;;;;;;2.63;0.40;;;;;;;17.90;94.67;95843.91;5050727;28;20416;-62
2021/07/15 05:00:01;;;;;;;1.10;0.33;;;;;;;17.83;94.74;95845.31;5035702;28;20494;-63
2021/07/15 05:02:26;;;;;;;0.60;0.40;;;;;;;17.58;96.21;95838.44;5035267;28;20541;-63
2021/07/15 05:04:53;;;;;;;0.50;0.50;;;;;;;17.31;97.88;95846.13;5036852;28;20440;-62
2021/07/15 05:07:18;;;;;;;1.17;0.40;;;;;;;17.61;96.46;95842.41;5055514;28;20167;-63
2021/07/15 05:09:44;;;;;;;0.83;0.83;;;;;;;17.65;96.70;95836.22;5056751;28;20734;-62
2021/07/15 05:12:09;;;;;;;0.67;0.53;;;;;;;17.79;95.81;95841.69;5056285;28;20167;-63
2021/07/15 05:14:40;;;;;;;1.07;0.90;;;;;;;17.54;96.73;95841.97;5056749;28;20202;-61
2021/07/15 05:17:07;;;;;;;1.77;0.80;;;;;;;17.58;97.63;95835.78;5056638;28;20172;-62
2021/07/15 05:19:33;;;;;;;1.87;0.83;;;;;;;17.65;96.56;95838.88;5052100;28;20421;-63
2021/07/15 05:21:58;;;;;;;2.40;0.60;;;;;;;17.66;96.12;95837.84;5036030;28;20466;-63
2021/07/15 05:24:24;;;;;;;1.00;0.40;;;;;;;17.66;96.59;95842.34;5052252;28;20214;-62
2021/07/15 05:26:49;;;;;;;2.10;0.40;;;;;;;17.64;96.55;95850.59;5056381;28;20167;-61
2021/07/15 05:29:16;;;;;;;0.47;0.47;;;;;;;17.81;96.19;95863.44;5056354;28;20195;-62
2021/07/15 05:31:41;;;;;;;0.80;0.30;;;;;;;17.50;96.74;95862.97;5055918;28;20176;-63
2021/07/15 05:34:07;;;;;;;0.50;0.50;;;;;;;17.48;97.05;95859.00;5055364;28;20447;-61
2021/07/15 05:36:32;;;;;;;1.43;0.50;;;;;;;17.15;98.61;95858.75;5056229;28;20199;-62
2021/07/15 05:38:57;;;;;;;2.27;0.40;;;;;;;17.26;99.11;95862.91;5056157;28;20181;-61
2021/07/15 05:41:23;;;;;;;0.40;0.30;;;;;;;17.48;97.77;95851.84;5056090;28;20522;-65
2021/07/15 05:43:48;;;;;;;0.40;0.30;;;;;;;17.50;97.86;95859.53;5055841;28;20227;-63
2021/07/15 05:46:13;;;;;;;0.40;0.40;;;;;;;17.42;98.68;95856.38;5056169;28;20539;-61
2021/07/15 05:48:39;;;;;;;0.50;0.30;;;;;;;17.30;99.11;95855.94;5038830;28;20263;-62
2021/07/15 05:51:04;;;;;;;2.73;0.40;;;;;;;17.30;99.56;95865.81;5036057;28;20168;-62
2021/07/15 05:53:30;;;;;;;2.97;0.47;;;;;;;17.24;100.00;95864.25;5035594;28;20245;-62
2021/07/15 05:55:55;;;;;;;0.40;0.40;;;;;;;17.36;99.06;95862.00;5035953;28;20176;-62
2021/07/15 05:58:20;;;;;;;0.80;0.50;;;;;;;17.41;99.66;95872.59;5044716;28;20176;-61
2021/07/15 06:00:46;;;;;;;0.83;0.50;;;;;;;17.63;98.94;95870.25;5049978;28;20180;-63
2021/07/15 06:03:11;;;;;;;1.17;0.40;;;;;;;17.78;96.65;95864.00;5035335;28;20547;-61
2021/07/15 06:05:37;;;;;;;1.27;0.40;;;;;;;17.45;98.10;95878.91;5035880;28;20180;-62
2021/07/15 06:08:02;;;;;;;0.77;0.40;;;;;;;17.06;100.00;95880.88;5035710;28;20172;-62
2021/07/15 06:10:28;;;;;;;1.47;0.43;;;;;;;17.20;100.00;95887.13;5035301;28;20168;-62
2021/07/15 06:12:53;;;;;;;0.50;0.50;;;;;;;17.07;100.00;95879.78;5042592;28;20621;-62
2021/07/15 06:15:19;;;;;;;1.13;0.47;;;;;;;17.18;100.00;95878.63;5055510;28;20194;-61
2021/07/15 06:17:45;;;;;;;1.57;0.40;;;;;;;16.92;100.00;95893.19;5055659;28;20624;-59
2021/07/15 06:20:13;;;;;;;1.90;0.60;;;;;;;16.90;100.00;95900.63;5045289;28;20192;-61
2021/07/15 06:22:40;;;;;;;1.80;0.67;;;;;;;16.86;100.00;95908.34;5034917;28;20295;-60
2021/07/15 06:25:07;;;;;;;1.20;0.80;;;;;;;17.10;100.00;95911.09;5035396;28;20435;-61
2021/07/15 06:27:32;;;;;;;2.77;0.60;;;;;;;17.00;100.00;95911.16;5035397;28;20418;-59
2021/07/15 06:29:57;;;;;;;1.10;0.37;;;;;;;17.07;100.00;95909.78;5035447;28;20403;-61
2021/07/15 06:32:23;;;;;;;3.80;0.50;;;;;;;17.31;100.00;95909.88;5035952;28;20195;-66
2021/07/15 06:34:48;;;;;;;1.10;0.53;;;;;;;17.40;100.00;95902.88;5053490;28;20195;-64
2021/07/15 06:37:14;;;;;;;2.83;0.40;;;;;;;17.11;100.00;95904.72;5041304;28;20271;-66
2021/07/15 06:39:40;;;;;;;1.50;0.60;;;;;;;17.22;100.00;95893.75;5035158;28;20627;-63
2021/07/15 06:42:06;;;;;;;1.17;0.40;;;;;;;17.20;100.00;95903.03;5033491;28;20971;-63
2021/07/15 06:44:31;;;;;;;3.03;0.60;;;;;;;17.09;100.00;95899.69;5035105;28;20450;-62
2021/07/15 06:46:57;;;;;;;1.57;0.60;;;;;;;17.08;100.00;95910.59;5041013;28;20252;-65
2021/07/15 06:49:25;;;;;;;0.87;0.70;;;;;;;17.09;100.00;95922.78;5054845;28;20178;-64
2021/07/15 06:51:52;;;;;;;0.60;0.50;;;;;;;17.34;100.00;95909.28;5051713;28;20496;-60
2021/07/15 06:54:18;;;;;;;1.80;0.80;;;;;;;17.46;100.00;95918.47;5054675;28;20924;-64
2021/07/15 06:56:43;;;;;;;0.73;0.70;;;;;;;17.59;100.00;95917.09;5036420;28;20426;-64
2021/07/15 06:59:08;;;;;;;0.97;0.50;;;;;;;17.87;100.00;95907.50;5049952;28;20252;-65
2021/07/15 07:01:34;;;;;;;1.80;0.50;;;;;;;17.98;99.04;95898.34;5053670;28;20225;-60
2021/07/15 07:03:59;;;;;;;3.57;0.50;;;;;;;18.22;97.37;95899.91;5044232;28;20568;-64
2021/07/15 07:06:24;;;;;;;0.50;0.50;;;;;;;18.38;96.58;95906.63;5054554;28;20168;-58
2021/07/15 07:08:50;;;;;;;2.73;0.60;;;;;;;18.39;96.24;95907.41;5054548;28;20171;-58
2021/07/15 07:11:15;;;;;;;2.00;0.60;;;;;;;18.65;96.17;95903.38;5054539;28;20175;-64
2021/07/15 07:13:41;;;;;;;2.00;0.67;;;;;;;18.77;95.44;95905.63;5049617;28;20249;-58
2021/07/15 07:16:06;;;;;;;0.60;0.50;;;;;;;19.03;93.40;95901.47;5040998;28;20179;-57
2021/07/15 07:18:31;;;;;;;1.80;0.53;;;;;;;19.01;92.26;95898.31;5054116;28;20172;-61
2021/07/15 07:20:58;;;;;;;1.70;0.70;;;;;;;19.18;93.12;95898.59;5054132;28;20630;-61
2021/07/15 07:23:24;;;;;;;1.53;0.60;;;;;;;19.18;91.74;95896.72;5053461;28;20282;-58
2021/07/15 07:25:49;;;;;;;2.60;0.60;;;;;;;19.37;90.83;95894.81;5067203;28;20424;-58
2021/07/15 07:28:15;;;;;;;1.10;0.73;;;;;;;19.48;90.54;95894.66;5053386;28;20523;-61
2021/07/15 07:30:40;;;;;;;1.70;0.80;;;;;;;19.48;89.87;95895.44;5054122;28;20175;-62
2021/07/15 07:33:05;;;;;;;0.97;0.40;;;;;;;19.12;90.47;95897.06;5045543;28;20184;-58
2021/07/15 07:35:31;;;;;;;1.33;0.40;;;;;;;19.32;89.09;95904.78;5035373;28;20278;-58
2021/07/15 07:37:56;;;;;;;2.83;0.60;;;;;;;18.81;93.75;95910.06;5039597;28;20213;-57
2021/07/15 07:40:22;;;;;;;4.33;0.60;;;;;;;18.92;92.41;95900.84;5053985;28;20202;-57
2021/07/15 07:42:47;;;;;;;0.87;0.50;;;;;;;18.96;93.41;95917.03;5053505;28;20707;-61
2021/07/15 07:45:14;;;;;;;2.30;0.57;;;;;;;19.16;93.02;95908.75;5049309;28;20203;-61
2021/07/15 07:47:41;;;;;;;1.23;0.60;;;;;;;19.30;91.98;95901.56;5033750;28;20619;-61
2021/07/15 07:50:09;;;;;;;0.63;0.40;;;;;;;19.41;92.67;95909.16;5033670;28;20916;-61
2021/07/15 07:52:35;;;;;;;0.30;0.30;;;;;;;19.66;92.13;95910.56;5033379;28;20430;-62
2021/07/15 07:55:00;;;;;;;1.83;0.60;;;;;;;19.79;91.04;95903.69;5046159;28;20909;-61
2021/07/15 07:57:26;;;;;;;1.17;0.50;;;;;;;19.81;89.78;95906.84;5053476;28;20618;-58
2021/07/15 07:59:53;;;;;;;1.50;0.47;;;;;;;19.96;89.83;95909.25;5053465;28;20249;-57
2021/07/15 08:02:20;;;;;;;1.30;0.50;;;;;;;20.11;89.92;95916.97;5052317;28;20191;-61
2021/07/15 08:04:46;;;;;;;0.57;0.30;;;;;;;20.31;89.31;95913.91;5045508;28;20438;-62
2021/07/15 08:07:14;;;;;;;1.50;0.30;;;;;;;20.42;87.48;95910.75;5033560;28;20450;-58
2021/07/15 08:09:44;;;;;;;0.60;0.40;;;;;;;20.62;86.85;95919.44;5033452;28;20407;-58
2021/07/15 08:12:12;;;;;;;0.80;0.30;;;;;;;20.68;86.55;95923.56;5033193;28;20410;-58
2021/07/15 08:14:38;;;;;;;0.90;0.40;;;;;;;20.86;85.13;95928.75;5033414;28;20431;-64
2021/07/15 08:17:03;;;;;;;0.70;0.63;;;;;;;21.01;84.83;95941.03;5033546;28;20410;-65
2021/07/15 08:19:29;;;;;;;0.73;0.50;;;;;;;20.90;83.50;95932.41;5041640;28;20183;-65
2021/07/15 08:21:55;;;;;;;1.10;0.40;;;;;;;21.02;83.74;95940.72;5032856;28;20290;-58
2021/07/15 08:24:21;;;;;;;0.70;0.67;;;;;;;20.88;84.25;95934.59;5033609;28;20226;-58
2021/07/15 08:26:46;;;;;;;0.50;0.43;;;;;;;20.90;82.03;95939.63;5033428;28;20458;-66
2021/07/15 08:29:12;;;;;;;1.80;0.67;;;;;;;20.65;82.38;95941.00;5033493;28;20263;-58
2021/07/15 08:31:37;;;;;;;0.50;0.50;;;;;;;20.85;82.54;95942.44;5032967;28;20227;-59
2021/07/15 08:34:03;;;;;;;1.20;0.70;;;;;;;20.97;83.55;95942.69;5031631;28;20658;-65
2021/07/15 08:36:31;;;;;;;0.80;0.60;;;;;;;21.17;83.54;95950.28;5052038;28;20187;-58
2021/07/15 08:38:57;;;;;;;0.77;0.40;;;;;;;21.31;83.61;95951.00;5048461;28;20176;-62
2021/07/15 08:41:22;;;;;;;0.40;0.40;;;;;;;21.21;80.18;95951.25;5033316;28;20916;-61
2021/07/15 08:43:49;;;;;;;1.73;0.50;;;;;;;21.25;81.58;95957.59;5032875;28;20450;-66
2021/07/15 08:46:17;;;;;;;0.40;0.40;;;;;;;21.02;81.18;95959.41;5038654;28;20704;-57
2021/07/15 08:48:46;;;;;;;0.63;0.30;;;;;;;20.92;80.65;95962.31;5053117;28;20896;-57
2021/07/15 08:51:12;;;;;;;0.50;0.40;;;;;;;20.82;81.59;95959.03;5053019;28;20463;-57
2021/07/15 08:53:39;;;;;;;0.50;0.50;;;;;;;20.78;83.65;95958.84;5050585;28;20850;-57
2021/07/15 08:58:48;;;;;;;0.63;0.50;;;;;;;20.87;83.94;95973.06;5045507;28;20397;-58
2021/07/15 09:01:14;;;;;;;0.60;0.40;;;;;;;20.93;83.54;95965.75;5053013;28;20406;-57
2021/07/15 09:03:40;;;;;;;0.90;0.43;;;;;;;20.78;83.59;95974.09;5052514;28;20784;-65
2021/07/15 09:06:06;;;;;;;0.60;0.40;;;;;;;20.79;83.61;95964.97;5052487;28;20178;-65
2021/07/15 09:08:32;;;;;;;0.50;0.50;;;;;;;20.89;83.33;95975.47;5053010;28;20414;-62
2021/07/15 09:11:00;;;;;;;0.60;0.47;;;;;;;20.92;82.17;95978.34;5042325;28;20462;-60
2021/07/15 09:13:25;;;;;;;2.00;0.40;;;;;;;20.96;82.48;95970.50;5038765;28;20915;-65
2021/07/15 09:15:51;;;;;;;0.60;0.40;;;;;;;20.92;82.68;95983.69;5042375;28;20453;-57
2021/07/15 09:18:17;;;;;;;2.73;0.30;;;;;;;20.84;83.22;95989.72;5040960;28;20173;-57
2021/07/15 09:20:43;;;;;;;0.90;0.50;;;;;;;20.76;85.79;95981.63;5040703;28;20168;-62
2021/07/15 09:23:13;;;;;;;0.93;0.40;;;;;;;20.73;84.93;95987.53;5043113;28;20453;-57
2021/07/15 09:25:39;;;;;;;0.50;0.50;;;;;;;20.79;86.07;95986.34;5043880;28;20880;-57
2021/07/15 09:28:13;;;;;;;0.40;0.40;;;;;;;20.85;86.53;95995.84;5041803;28;20452;-64
2021/07/15 09:30:40;;;;;;;0.60;0.60;;;;;;;20.96;86.65;95992.66;5033766;28;20512;-65
2021/07/15 09:33:11;;;;;;;0.60;0.50;;;;;;;21.00;84.26;95992.88;5032442;28;20436;-56
2021/07/15 09:35:39;;;;;;;0.37;0.37;;;;;;;21.00;85.41;95992.88;5032769;28;20403;-64
2021/07/15 09:38:16;;;;;;;0.50;0.50;;;;;;;21.02;85.95;95996.03;5032663;28;20411;-57
2021/07/15 09:40:48;;;;;;;0.50;0.47;;;;;;;21.12;85.63;95993.16;5036113;28;20418;-64
2021/07/15 09:43:29;;;;;;;0.80;0.60;;;;;;;21.23;85.74;95994.50;5032888;28;20838;-57
2021/07/15 09:45:56;;;;;;;1.20;0.80;;;;;;;21.20;85.88;95989.75;5033413;28;20415;-64
2021/07/15 09:48:27;;;;;;;0.50;0.50;;;;;;;21.23;84.26;95994.50;5036132;28;20415;-64
2021/07/15 09:50:55;;;;;;;0.73;0.60;;;;;;;21.24;85.00;95993.41;5039664;28;20860;-61
2021/07/15 09:53:26;;;;;;;0.70;0.50;;;;;;;21.27;85.46;95998.16;5055065;28;20406;-63
2021/07/15 09:56:02;;;;;;;0.70;0.40;;;;;;;21.25;84.06;95995.00;5052987;28;20421;-62
2021/07/15 09:58:38;;;;;;;0.50;0.50;;;;;;;21.36;85.26;95999.03;5052778;28;20437;-62
2021/07/15 10:01:06;;;;;;;0.80;0.40;;;;;;;21.44;85.12;95996.41;5047871;28;20437;-61
2021/07/15 10:03:42;;;;;;;0.50;0.47;;;;;;;21.37;83.69;95995.25;5040898;28;20515;-61
2021/07/15 10:06:09;;;;;;;1.83;0.50;;;;;;;21.20;83.58;96003.13;5051714;28;20425;-62
2021/07/15 10:08:36;;;;;;;0.50;0.50;;;;;;;21.17;83.61;96003.72;5052648;28;20507;-58
2021/07/15 10:11:33;;;;;;;0.53;0.40;;;;;;;21.09;82.49;96001.75;5048352;28;20838;-66
2021/07/15 10:13:59;;;;;;;0.40;0.40;;;;;;;21.23;83.91;96002.53;5043253;28;20535;-65
2021/07/15 10:16:31;;;;;;;0.60;0.43;;;;;;;21.23;83.64;96000.63;5043529;28;20458;-58
2021/07/15 10:18:56;;;;;;;0.63;0.40;;;;;;;20.85;84.56;96006.53;5043760;28;20174;-58
2021/07/15 10:21:29;;;;;;;0.83;0.47;;;;;;;20.78;84.05;96006.16;5046654;28;20508;-65
2021/07/15 10:23:56;;;;;;;0.40;0.40;;;;;;;20.64;84.75;96013.34;5045894;28;20206;-64
2021/07/15 10:26:22;;;;;;;0.70;0.47;;;;;;;20.60;86.16;96013.16;5039677;28;20434;-65
2021/07/15 10:28:50;;;;;;;0.77;0.70;;;;;;;20.40;86.75;96011.69;5051872;28;20409;-66
2021/07/15 10:31:18;;;;;;;1.23;0.47;;;;;;;20.47;88.21;96017.41;5051841;28;20410;-66
2021/07/15 10:33:44;;;;;;;0.50;0.40;;;;;;;20.71;88.92;96016.44;5051086;28;20434;-66
2021/07/15 10:36:11;;;;;;;0.50;0.50;;;;;;;20.92;89.74;96017.59;5046681;28;20425;-67
2021/07/15 10:38:40;;;;;;;0.70;0.50;;;;;;;21.05;89.58;96012.25;5051728;28;20414;-63
2021/07/15 10:41:06;;;;;;;0.53;0.50;;;;;;;21.39;87.85;96014.47;5052059;28;20422;-63
2021/07/15 10:43:32;;;;;;;0.63;0.63;;;;;;;21.16;91.36;96012.84;5051069;28;20461;-63
2021/07/15 10:46:01;;;;;;;0.67;0.67;;;;;;;21.49;89.04;96012.34;5052487;28;20479;-64
2021/07/15 10:48:27;;;;;;;1.17;0.50;;;;;;;21.75;87.74;96019.75;5051875;28;20422;-61
2021/07/15 10:50:53;;;;;;;1.90;0.60;;;;;;;21.55;89.76;96015.69;5050514;28;20410;-62
2021/07/15 10:53:19;;;;;;;0.73;0.70;;;;;;;21.73;88.97;96011.25;5051362;28;20406;-61
2021/07/15 10:55:46;;;;;;;0.50;0.50;;;;;;;21.74;88.65;96012.84;5051740;28;20509;-61
2021/07/15 10:58:11;;;;;;;0.80;0.67;;;;;;;21.76;89.71;96014.09;5050832;28;20427;-64
2021/07/15 11:00:48;;;;;;;0.97;0.70;;;;;;;21.93;88.08;96010.78;5051828;28;20773;-63
2021/07/15 11:03:23;;;;;;;1.73;0.70;;;;;;;22.12;86.04;96020.19;5051422;28;20210;-59
2021/07/15 11:05:54;;;;;;;1.90;0.90;;;;;;;22.24;88.61;96016.94;5051188;28;20471;-64
2021/07/15 11:09:01;;;;;;;0.70;0.70;;;;;;;21.85;87.50;96014.22;5051658;28;20468;-58
2021/07/15 11:11:38;;;;;;;2.23;1.03;;;;;;;22.24;84.87;96024.97;5051232;28;20441;-60
2021/07/15 11:14:04;;;;;;;0.73;0.70;;;;;;;22.31;82.93;96028.81;5051143;28;20852;-63
2021/07/15 11:16:48;;;;;;;0.93;0.60;;;;;;;22.32;85.04;96024.25;5051432;28;20979;-59
2021/07/15 11:19:52;;;;;;;1.23;0.60;;;;;;;22.50;82.99;96028.56;5050858;28;20767;-63
2021/07/15 11:22:36;;;;;;;0.60;0.60;;;;;;;22.54;84.58;96028.75;5050683;28;20469;-65
2021/07/15 11:25:08;;;;;;;1.07;0.60;;;;;;;22.44;85.58;96021.78;5050559;28;20433;-65
2021/07/15 11:27:37;;;;;;;1.00;0.50;;;;;;;22.61;84.00;96023.75;5050868;28;20410;-65
2021/07/15 11:30:05;;;;;;;1.80;0.77;;;;;;;22.53;84.10;96022.59;5051294;28;20422;-58
2021/07/15 11:32:31;;;;;;;1.30;1.00;;;;;;;22.70;82.76;96021.91;5050427;28;20421;-59
2021/07/15 11:34:57;;;;;;;0.60;0.60;;;;;;;22.67;82.92;96015.25;5050784;28;20445;-66
2021/07/15 11:37:25;;;;;;;0.57;0.57;;;;;;;22.87;82.84;96016.56;5051016;28;20534;-65